»·PEaware :: DCM205 KSAN-KSBA

DCM205 :: KSAN-KSBA

FLIGHT INFORMATION

Flight Status: Arrived
Operator:
DotCom
More flights by this operator :: More flights under this callsign
Pilot: Chris S. (2433)
Aircraft: DEHAVILLAND DASH 8 400
(DH8D)
More flights by this aircraft type
Origin: KSAN San Diego Intl-Lindbergh
United States
Destination: KSBA Santa Barbara Mun
United States
More flights between these airports :: More routes between these airports
Route: +CWARD2 CWARD AVOLS V208 VTU VTU282 KWANG
File this flight plan on PilotEdge
Remarks:
Altitude:
(Current/Filed)
18,000ft
Speed:
(Current/Filed)
350kts
Departed: 26-Apr-20 11:04 AM
Arrived: 26-Apr-20 11:46 AM
Distance/Time
Traveled:
167nm/0:42
Distance/Time
To Go:
Arrived

Flight Plot

Page will automatically refresh every two minutes.

Flight plan parsing failed; only flown route is shown


Map Options




Map Legend


Flown Route
Filed Route
Departure Airport
Arrival Airport
Navaid (VOR, NDB)
Fix

Horizontal Profiles

Position Reports

Time Latitude Longitude Heading Altitude Ground
Speed
26-Apr-20 10:43 32.735274 -117.189292 196 22ft 0kts
26-Apr-20 10:44 32.735274 -117.189292 196 22ft 0kts
26-Apr-20 10:45 32.735274 -117.189292 196 22ft 0kts
26-Apr-20 10:46 32.735274 -117.189292 196 22ft 0kts
26-Apr-20 10:47 32.735274 -117.189292 196 22ft 0kts
26-Apr-20 10:48 32.735274 -117.189292 196 22ft 0kts
26-Apr-20 10:49 32.735274 -117.189292 196 22ft 0kts
26-Apr-20 10:50 32.735274 -117.189292 196 22ft 0kts
26-Apr-20 10:51 32.735274 -117.189292 196 22ft 0kts
26-Apr-20 10:52 32.735274 -117.189292 196 22ft 0kts
26-Apr-20 10:53 32.735274 -117.189292 196 22ft 0kts
26-Apr-20 10:54 32.735281 -117.189290 196 22ft 0kts
26-Apr-20 10:55 32.735281 -117.189290 196 22ft 0kts
26-Apr-20 10:56 32.734475 -117.188730 104 22ft 14kts
26-Apr-20 10:57 32.733305 -117.183862 106 22ft 14kts
26-Apr-20 10:58 32.731953 -117.178280 106 22ft 16kts
26-Apr-20 10:59 32.731009 -117.175560 146 22ft 0kts
26-Apr-20 11:00 32.731009 -117.175560 146 22ft 0kts
26-Apr-20 11:01 32.731009 -117.175560 146 22ft 0kts
26-Apr-20 11:02 32.731009 -117.175560 146 22ft 0kts
26-Apr-20 11:03 32.731546 -117.181565 286 22ft 94kts
26-Apr-20 11:04 32.747066 -117.221801 305 1797ft 146kts
26-Apr-20 11:05 32.772188 -117.266093 300 3908ft 169kts
26-Apr-20 11:06 32.800741 -117.319232 303 5652ft 214kts
26-Apr-20 11:07 32.838781 -117.379624 306 7486ft 233kts
26-Apr-20 11:08 32.879404 -117.441900 305 9068ft 249kts
26-Apr-20 11:09 32.924024 -117.511316 305 9905ft 278kts
26-Apr-20 11:10 32.973485 -117.588670 305 9989ft 307kts
26-Apr-20 11:11 33.025939 -117.670576 305 9998ft 310kts
26-Apr-20 11:12 33.080311 -117.747593 316 10003ft 302kts
26-Apr-20 11:13 33.144320 -117.811519 317 10276ft 295kts
26-Apr-20 11:14 33.205702 -117.863514 338 12347ft 258kts
26-Apr-20 11:15 33.276020 -117.882276 343 13566ft 262kts
26-Apr-20 11:16 33.347598 -117.902399 326 14802ft 259kts
26-Apr-20 11:17 33.373427 -117.974632 268 16060ft 243kts
26-Apr-20 11:18 33.370347 -118.055651 261 17292ft 241kts
26-Apr-20 11:19 33.362243 -118.136782 260 17991ft 256kts
26-Apr-20 11:20 33.353341 -118.225570 261 18038ft 280kts
26-Apr-20 11:21 33.362224 -118.321242 275 18047ft 298kts
26-Apr-20 11:22 33.379439 -118.419792 293 18052ft 312kts
26-Apr-20 11:23 33.433514 -118.503525 305 18053ft 322kts
26-Apr-20 11:24 33.491492 -118.585637 305 18046ft 324kts
26-Apr-20 11:25 33.549567 -118.668510 304 18037ft 325kts
26-Apr-20 11:26 33.607441 -118.751535 305 18030ft 325kts
26-Apr-20 11:27 33.665446 -118.834786 305 18025ft 325kts
26-Apr-20 11:29 33.723381 -118.918068 304 18022ft 325kts
26-Apr-20 11:30 33.783040 -118.999512 318 18015ft 332kts
26-Apr-20 11:31 33.875090 -119.025038 350 18012ft 349kts
26-Apr-20 11:32 33.972059 -119.034441 350 17322ft 346kts
26-Apr-20 11:33 34.065135 -119.044219 350 15794ft 325kts
26-Apr-20 11:34 34.132643 -119.096331 298 14197ft 289kts
26-Apr-20 11:35 34.170060 -119.180746 294 12575ft 282kts
26-Apr-20 11:36 34.204594 -119.263711 295 10945ft 272kts
26-Apr-20 11:37 34.238386 -119.344884 296 9332ft 269kts
26-Apr-20 11:38 34.271918 -119.425182 297 7744ft 262kts
26-Apr-20 11:39 34.302073 -119.497451 297 6311ft 230kts
26-Apr-20 11:40 34.328858 -119.564583 295 4984ft 204kts
26-Apr-20 11:41 34.352674 -119.626045 295 3795ft 204kts
26-Apr-20 11:42 34.375993 -119.687035 293 2557ft 186kts
26-Apr-20 11:43 34.396026 -119.739712 292 1822ft 162kts
26-Apr-20 11:44 34.416593 -119.784241 297 1339ft 130kts
26-Apr-20 11:45 34.428149 -119.824254 266 217ft 123kts
26-Apr-20 11:46 34.427490 -119.851218 248 17ft 18kts
26-Apr-20 11:46 34.426451 -119.851351 97 17ft 11kts
26-Apr-20 11:47 34.426614 -119.843221 88 17ft 26kts
26-Apr-20 11:49 34.426008 -119.837460 89 17ft 0kts
26-Apr-20 11:49 34.426008 -119.837460 89 17ft 0kts
26-Apr-20 11:50 34.426008 -119.837460 89 17ft 0kts
26-Apr-20 11:51 34.426008 -119.837460 89 17ft 0kts
26-Apr-20 11:52 34.426008 -119.837460 89 17ft 0kts
26-Apr-20 11:53 34.426008 -119.837460 89 17ft 0kts
26-Apr-20 11:54 34.426008 -119.837460 89 17ft 0kts
26-Apr-20 11:55 34.426008 -119.837460 89 17ft 0kts
26-Apr-20 11:56 34.426008 -119.837460 89 17ft 0kts
26-Apr-20 11:57 34.426008 -119.837460 89 17ft 0kts
26-Apr-20 11:58 34.426008 -119.837460 89 17ft 0kts
26-Apr-20 11:59 34.426008 -119.837460 89 17ft 0kts

Navigation Log

Ident Type
Flight plan parsing failed, navigation log unavailable